Time;durP1;ratioP1;P1;durP2;ratioP2;P2;SDS_P1;SDS_P2;PMS_P1;PMS_P2;Temp;Humidity;BMP_temperature;BMP_pressure;BME280_temperature;BME280_humidity;BME280_pressure;Samples;Min_cycle;Max_cycle;Signal;HPM_P1;HPM_P2
2023/06/16 00:01:06;;;;;;;9.48;6.00;;;;;;;16.61;60.18;100945.09;7397151;19;20014;-68
2023/06/16 00:03:36;;;;;;;9.10;6.30;;;;;;;16.61;60.11;100935.34;7395446;19;20079;-68
2023/06/16 00:06:12;;;;;;;6.40;5.80;;;;;;;16.61;60.39;100942.44;7397657;19;20023;-68
2023/06/16 00:08:41;;;;;;;7.10;6.40;;;;;;;16.61;60.34;100945.94;7398072;19;20041;-68
2023/06/16 00:11:09;;;;;;;6.38;5.43;;;;;;;16.60;60.52;100943.38;7393422;19;20019;-68
2023/06/16 00:13:37;;;;;;;6.88;6.18;;;;;;;16.57;60.76;100940.88;7395489;19;20070;-68
2023/06/16 00:16:09;;;;;;;6.60;6.00;;;;;;;16.57;60.80;100935.56;7396944;19;20082;-68
2023/06/16 00:18:43;;;;;;;7.43;5.95;;;;;;;16.54;61.20;100933.91;7395921;19;20018;-68
2023/06/16 00:21:13;;;;;;;;;;;;;;;16.53;61.19;100931.31;7398059;19;20018;-68
2023/06/16 00:23:41;;;;;;;7.93;6.15;;;;;;;16.53;61.12;100933.94;7394994;19;19918;-68
2023/06/16 00:26:10;;;;;;;7.15;5.97;;;;;;;16.52;61.39;100924.31;7396950;19;20014;-68
2023/06/16 00:28:38;;;;;;;7.30;6.13;;;;;;;16.54;61.53;100922.44;7396558;19;20510;-68
2023/06/16 00:31:10;;;;;;;7.00;6.30;;;;;;;16.56;61.78;100921.44;7396759;19;20031;-67
2023/06/16 00:33:38;;;;;;;6.90;6.20;;;;;;;16.57;61.91;100912.56;7396012;19;20027;-68
2023/06/16 00:36:07;;;;;;;9.43;6.60;;;;;;;16.59;61.77;100913.38;7394935;19;20082;-68
2023/06/16 00:38:35;;;;;;;8.60;6.38;;;;;;;16.60;61.94;100917.75;7394737;19;20096;-68
2023/06/16 00:41:04;;;;;;;8.30;6.82;;;;;;;16.60;62.22;100914.22;7394728;19;20019;-68
2023/06/16 00:43:33;;;;;;;8.98;6.38;;;;;;;16.61;62.24;100910.66;7394702;19;20081;-67
2023/06/16 00:46:02;;;;;;;7.45;5.75;;;;;;;16.61;62.69;100918.59;7393790;19;20081;-68
2023/06/16 00:48:33;;;;;;;7.53;5.82;;;;;;;16.63;63.27;100913.22;7394846;19;20090;-68
2023/06/16 00:51:01;;;;;;;7.07;6.30;;;;;;;16.62;63.67;100915.03;7395035;19;20026;-68
2023/06/16 00:53:31;;;;;;;6.80;6.20;;;;;;;16.62;64.06;100907.09;7395271;19;20015;-67
2023/06/16 00:56:00;;;;;;;7.75;6.93;;;;;;;16.62;64.59;100912.38;7394000;19;20017;-68
2023/06/16 00:58:30;;;;;;;8.52;6.95;;;;;;;16.61;65.08;100916.81;7396045;19;20074;-68
2023/06/16 01:00:59;;;;;;;9.00;6.93;;;;;;;16.60;65.66;100904.50;7395851;19;20082;-68
2023/06/16 01:03:28;;;;;;;8.48;7.10;;;;;;;16.59;66.32;100901.91;7394098;19;20011;-68
2023/06/16 01:06:06;;;;;;;8.95;7.45;;;;;;;16.57;66.96;100901.13;7396572;19;20366;-68
2023/06/16 01:08:41;;;;;;;8.30;7.28;;;;;;;16.54;67.53;100895.97;7394462;19;20024;-68
2023/06/16 01:11:30;;;;;;;8.35;7.55;;;;;;;16.48;68.88;100881.22;7395308;19;20014;-68
2023/06/16 01:14:06;;;;;;;9.45;7.00;;;;;;;16.35;69.34;100865.00;7394744;19;20010;-66
2023/06/16 01:16:36;;;;;;;7.97;7.18;;;;;;;16.18;69.77;100878.97;7396103;19;20373;-67
2023/06/16 01:19:13;;;;;;;9.45;8.13;;;;;;;16.02;70.52;100875.25;7393419;19;20494;-67
2023/06/16 01:21:53;;;;;;;10.20;8.10;;;;;;;15.87;71.31;100880.28;7394241;19;20014;-67
2023/06/16 01:24:25;;;;;;;9.07;7.40;;;;;;;15.75;71.77;100886.91;7393923;19;20018;-66
2023/06/16 01:26:58;;;;;;;11.65;8.60;;;;;;;15.66;72.28;100889.94;7394858;19;20510;-67
2023/06/16 01:29:28;;;;;;;10.07;8.70;;;;;;;15.58;73.22;100889.34;7395204;19;20380;-66
2023/06/16 01:32:01;;;;;;;9.55;8.55;;;;;;;15.48;73.57;100900.31;7392928;19;20494;-66
2023/06/16 01:34:31;;;;;;;9.00;8.20;;;;;;;15.42;74.05;100900.56;7393319;19;20018;-66
2023/06/16 01:37:01;;;;;;;10.90;8.50;;;;;;;15.34;74.48;100893.84;7394476;19;20083;-66
2023/06/16 01:39:33;;;;;;;9.43;8.18;;;;;;;15.29;74.59;100901.94;7394794;19;20110;-67
2023/06/16 01:42:02;;;;;;;12.80;8.73;;;;;;;15.27;74.84;100906.44;7394543;19;20153;-66
2023/06/16 01:44:33;;;;;;;10.73;9.68;;;;;;;15.21;75.48;100907.53;7393018;19;20082;-66
2023/06/16 01:47:08;;;;;;;10.63;9.52;;;;;;;15.17;75.55;100913.88;7393099;19;20007;-66
2023/06/16 01:49:37;;;;;;;10.63;8.95;;;;;;;15.14;76.45;100927.22;7394327;19;20411;-66
2023/06/16 01:52:07;;;;;;;10.45;9.45;;;;;;;15.08;76.87;100927.44;7394178;19;20082;-66
2023/06/16 01:54:38;;;;;;;10.95;9.95;;;;;;;15.03;77.06;100918.81;7392767;19;20077;-66
2023/06/16 01:57:07;;;;;;;12.48;10.02;;;;;;;15.03;77.85;100922.31;7392964;19;20082;-66
2023/06/16 01:59:36;;;;;;;11.25;10.25;;;;;;;15.02;78.24;100917.09;7394405;19;20086;-66
2023/06/16 02:02:10;;;;;;;12.13;10.23;;;;;;;15.01;78.78;100916.22;7393316;19;20422;-66
2023/06/16 02:04:44;;;;;;;10.57;9.57;;;;;;;14.99;78.83;100903.06;7392167;19;20025;-66
2023/06/16 02:07:15;;;;;;;12.02;9.75;;;;;;;15.01;79.62;100908.28;7394613;19;20015;-66
2023/06/16 02:09:48;;;;;;;11.95;10.75;;;;;;;15.00;80.03;100903.94;7395283;19;20070;-67
2023/06/16 02:12:18;;;;;;;10.85;9.85;;;;;;;14.99;80.60;100904.88;7395645;19;20018;-67
2023/06/16 02:14:48;;;;;;;10.95;9.73;;;;;;;14.96;80.54;100897.91;7392630;19;20022;-66
2023/06/16 02:17:16;;;;;;;12.25;11.05;;;;;;;14.93;81.22;100899.81;7395532;19;20056;-66
2023/06/16 02:19:44;;;;;;;12.50;11.18;;;;;;;14.90;81.51;100899.91;7393614;19;20027;-66
2023/06/16 02:22:13;;;;;;;11.93;10.65;;;;;;;14.87;82.04;100903.53;7393050;19;20090;-66
2023/06/16 02:24:41;;;;;;;12.13;10.88;;;;;;;14.81;82.52;100907.28;7391345;19;20415;-68
2023/06/16 02:27:13;;;;;;;13.85;11.35;;;;;;;14.71;83.50;100897.97;7391529;19;20082;-67
2023/06/16 02:29:42;;;;;;;12.43;11.30;;;;;;;14.59;83.15;100901.88;7391671;19;20019;-67
2023/06/16 02:32:10;;;;;;;13.05;11.60;;;;;;;14.52;83.28;100904.78;7393580;19;20082;-68
2023/06/16 02:34:40;;;;;;;14.93;13.35;;;;;;;14.45;83.92;100899.72;7394867;19;20039;-68
2023/06/16 02:37:08;;;;;;;14.32;13.05;;;;;;;14.38;84.19;100900.00;7398353;19;20505;-67
2023/06/16 02:39:36;;;;;;;15.57;14.07;;;;;;;14.33;84.38;100898.38;7397671;19;20274;-67
2023/06/16 02:42:06;;;;;;;15.07;13.40;;;;;;;14.29;85.04;100891.50;7399759;19;20035;-67
2023/06/16 02:44:37;;;;;;;16.20;14.80;;;;;;;14.27;85.20;100890.69;7397869;19;20090;-66
2023/06/16 02:47:05;;;;;;;16.88;15.30;;;;;;;14.23;85.70;100898.75;7399013;19;20545;-67
2023/06/16 02:49:34;;;;;;;17.90;15.98;;;;;;;14.18;86.24;100902.41;7400740;19;20022;-67
2023/06/16 02:52:02;;;;;;;19.27;17.48;;;;;;;14.13;86.32;100898.22;7399891;19;20388;-67
2023/06/16 02:54:31;;;;;;;20.02;17.60;;;;;;;14.09;87.58;100900.09;7397913;19;20022;-67
2023/06/16 02:56:59;;;;;;;19.40;17.63;;;;;;;14.05;87.05;100887.91;7397600;19;20043;-67
2023/06/16 02:59:28;;;;;;;19.80;17.88;;;;;;;14.04;87.84;100890.59;7400040;19;20034;-67
2023/06/16 03:01:59;;;;;;;20.00;17.92;;;;;;;14.01;87.59;100899.47;7399475;19;20086;-67
2023/06/16 03:04:27;;;;;;;20.50;18.50;;;;;;;14.02;87.40;100882.75;7397343;19;20082;-66
2023/06/16 03:06:57;;;;;;;20.70;18.77;;;;;;;14.04;87.40;100880.03;7396529;19;20078;-68
2023/06/16 03:09:26;;;;;;;20.38;18.23;;;;;;;14.08;87.72;100879.91;7399008;19;20486;-66
2023/06/16 03:11:55;;;;;;;20.33;18.25;;;;;;;14.12;87.46;100867.47;7396636;19;20007;-66
2023/06/16 03:14:25;;;;;;;19.88;17.98;;;;;;;14.15;87.45;100870.88;7396374;19;20019;-66
2023/06/16 03:16:53;;;;;;;21.63;19.50;;;;;;;14.19;87.38;100882.16;7397079;19;20021;-66
2023/06/16 03:19:24;;;;;;;21.42;19.25;;;;;;;14.22;87.50;100879.41;7399380;19;20021;-66
2023/06/16 03:21:53;;;;;;;21.23;19.13;;;;;;;14.24;87.31;100874.97;7396724;19;20486;-66
2023/06/16 03:24:22;;;;;;;20.45;18.60;;;;;;;14.25;87.44;100883.72;7397214;19;20362;-65
2023/06/16 03:26:51;;;;;;;19.08;17.38;;;;;;;14.26;87.12;100878.38;7398883;19;20074;-65
2023/06/16 03:29:20;;;;;;;20.52;18.52;;;;;;;14.28;87.09;100875.69;7398457;19;20505;-66
2023/06/16 03:32:10;;;;;;;19.67;17.67;;;;;;;14.29;86.97;100870.38;7399002;19;20011;-67
2023/06/16 03:34:44;;;;;;;19.95;17.95;;;;;;;14.31;87.06;100876.44;7396094;19;20082;-66
2023/06/16 03:37:12;;;;;;;23.38;20.98;;;;;;;14.33;86.85;100871.09;7398331;19;20010;-66
2023/06/16 03:39:41;;;;;;;22.30;19.95;;;;;;;14.33;86.93;100877.25;7398519;19;20439;-66
2023/06/16 03:42:10;;;;;;;19.23;17.38;;;;;;;14.36;86.99;100873.66;7396064;19;20023;-67
2023/06/16 03:44:38;;;;;;;19.60;17.77;;;;;;;14.38;86.88;100870.97;7395437;19;20039;-67
2023/06/16 03:47:20;;;;;;;18.55;16.63;;;;;;;14.40;86.89;100875.25;7394069;19;20403;-67
2023/06/16 03:49:51;;;;;;;18.40;16.70;;;;;;;14.42;86.81;100876.09;7399044;19;20018;-67
2023/06/16 03:52:19;;;;;;;18.10;16.38;;;;;;;14.43;86.93;100875.16;7398317;19;20027;-68
2023/06/16 03:54:48;;;;;;;17.88;16.05;;;;;;;14.44;86.76;100876.03;7395431;19;20018;-68
2023/06/16 03:57:17;;;;;;;18.42;16.73;;;;;;;14.44;86.57;100876.03;7398044;19;20018;-68
2023/06/16 03:59:45;;;;;;;18.60;16.65;;;;;;;14.44;86.49;100889.22;7397384;19;20019;-68
2023/06/16 04:02:14;;;;;;;19.05;17.05;;;;;;;14.43;86.28;100888.38;7397371;19;20023;-68
2023/06/16 04:04:45;;;;;;;18.10;16.30;;;;;;;14.41;86.62;100881.41;7395362;19;20019;-68
2023/06/16 04:07:17;;;;;;;18.40;16.60;;;;;;;14.35;86.86;100882.47;7395942;19;20011;-66
2023/06/16 04:09:45;;;;;;;18.77;16.77;;;;;;;14.26;87.14;100878.38;7395639;19;20034;-66
2023/06/16 04:12:14;;;;;;;18.02;16.23;;;;;;;14.21;87.20;100875.06;7395258;19;20015;-67
2023/06/16 04:14:42;;;;;;;18.13;16.33;;;;;;;14.14;87.48;100882.31;7394519;19;20547;-66
2023/06/16 04:17:11;;;;;;;17.40;15.57;;;;;;;14.10;87.71;100874.56;7397067;19;20031;-68
2023/06/16 04:19:41;;;;;;;18.15;15.23;;;;;;;14.04;87.91;100872.13;7397205;19;20018;-67
2023/06/16 04:22:09;;;;;;;18.50;16.70;;;;;;;14.04;88.27;100883.56;7396592;19;20010;-67
2023/06/16 04:24:40;;;;;;;18.52;16.73;;;;;;;14.02;88.27;100885.38;7394359;19;20364;-67
2023/06/16 04:27:09;;;;;;;18.60;16.77;;;;;;;14.01;88.34;100881.00;7394455;19;20493;-67
2023/06/16 04:29:41;;;;;;;19.27;16.73;;;;;;;14.00;88.83;100880.16;7396463;19;20023;-67
2023/06/16 04:32:11;;;;;;;18.80;16.83;;;;;;;14.02;89.11;100883.59;7395178;19;20015;-67
2023/06/16 04:34:40;;;;;;;19.58;17.42;;;;;;;14.05;89.77;100879.13;7395688;19;20014;-67
2023/06/16 04:37:11;;;;;;;18.48;16.67;;;;;;;14.07;89.69;100875.53;7395864;19;20521;-67
2023/06/16 04:39:43;;;;;;;18.75;16.85;;;;;;;14.07;90.33;100883.44;7394961;19;20011;-68
2023/06/16 04:42:11;;;;;;;19.63;17.65;;;;;;;14.09;90.27;100883.38;7394402;19;20025;-67
2023/06/16 04:44:41;;;;;;;18.83;17.02;;;;;;;14.10;90.16;100874.56;7393831;19;20022;-67
2023/06/16 04:47:12;;;;;;;17.38;15.63;;;;;;;14.10;91.15;100880.72;7393858;19;20054;-68
2023/06/16 04:49:41;;;;;;;17.83;16.08;;;;;;;14.10;90.68;100885.13;7395535;19;20482;-67
2023/06/16 04:52:09;;;;;;;17.88;16.02;;;;;;;14.09;91.29;100879.00;7395065;19;20019;-67
2023/06/16 04:54:38;;;;;;;18.23;16.42;;;;;;;14.10;90.97;100878.09;7393857;19;20390;-68
2023/06/16 04:57:09;;;;;;;19.17;17.27;;;;;;;14.10;92.30;100875.44;7394918;19;20027;-67
2023/06/16 04:59:38;;;;;;;18.15;16.25;;;;;;;14.12;91.82;100878.03;7395291;19;20026;-67
2023/06/16 05:02:07;;;;;;;18.90;16.83;;;;;;;14.11;91.80;100874.50;7395201;19;20006;-69
2023/06/16 05:04:37;;;;;;;18.42;16.50;;;;;;;14.14;92.30;100877.06;7393213;19;20035;-67
2023/06/16 05:07:06;;;;;;;18.75;16.83;;;;;;;14.20;91.61;100880.38;7392730;19;20022;-67
2023/06/16 05:09:35;;;;;;;18.52;16.73;;;;;;;14.27;91.84;100877.47;7395908;19;20367;-67
2023/06/16 05:12:03;;;;;;;19.83;17.75;;;;;;;14.35;91.79;100874.56;7394885;19;20014;-67
2023/06/16 05:14:35;;;;;;;18.73;16.95;;;;;;;14.41;92.14;100868.22;7392791;19;20019;-68
2023/06/16 05:17:03;;;;;;;18.52;16.38;;;;;;;14.51;92.03;100869.59;7393974;19;20113;-68
2023/06/16 05:19:32;;;;;;;17.10;15.35;;;;;;;14.58;92.16;100871.09;7391814;19;20015;-69
2023/06/16 05:22:01;;;;;;;18.60;16.70;;;;;;;14.64;91.43;100870.91;7394635;19;20015;-67
2023/06/16 05:24:30;;;;;;;20.02;16.30;;;;;;;14.76;91.64;100879.28;7392970;19;20482;-67
2023/06/16 05:26:58;;;;;;;21.48;14.98;;;;;;;14.85;91.63;100878.09;7392794;19;20026;-67
2023/06/16 05:29:27;;;;;;;18.05;16.02;;;;;;;14.91;91.01;100872.56;7393764;19;20035;-67
2023/06/16 05:31:58;;;;;;;16.63;14.95;;;;;;;14.96;90.96;100874.13;7392750;19;20482;-67
2023/06/16 05:34:26;;;;;;;15.38;13.80;;;;;;;14.99;90.55;100874.00;7392442;19;20397;-67
2023/06/16 05:36:55;;;;;;;17.33;14.52;;;;;;;15.02;90.26;100873.03;7394139;19;20018;-67
2023/06/16 05:39:23;;;;;;;16.52;14.82;;;;;;;15.04;90.56;100879.13;7394101;19;20035;-67
2023/06/16 05:41:52;;;;;;;15.02;13.43;;;;;;;15.05;90.27;100878.22;7393940;19;20443;-67
2023/06/16 05:44:20;;;;;;;15.15;13.15;;;;;;;15.07;90.30;100873.72;7391923;19;20037;-67
2023/06/16 05:46:48;;;;;;;16.33;13.73;;;;;;;15.14;90.36;100879.66;7394123;19;20020;-67
2023/06/16 05:49:19;;;;;;;13.75;12.10;;;;;;;15.20;90.28;100883.81;7394438;19;20039;-68
2023/06/16 05:51:48;;;;;;;15.40;13.80;;;;;;;15.20;89.87;100879.38;7392885;19;20035;-67
2023/06/16 05:54:16;;;;;;;14.85;13.35;;;;;;;15.20;90.06;100884.66;7392409;19;20023;-67
2023/06/16 05:56:45;;;;;;;14.80;13.30;;;;;;;15.21;89.92;100880.25;7394072;19;20015;-68
2023/06/16 05:59:13;;;;;;;15.20;13.48;;;;;;;15.18;89.47;100889.16;7393194;19;20031;-66
2023/06/16 06:01:42;;;;;;;16.25;13.23;;;;;;;15.21;89.81;100889.03;7393847;19;20031;-67
2023/06/16 06:04:13;;;;;;;14.25;12.77;;;;;;;15.23;89.98;100889.84;7391489;19;20039;-66
2023/06/16 06:06:44;;;;;;;18.50;14.02;;;;;;;15.23;90.06;100884.56;7393101;19;20018;-67
2023/06/16 06:09:13;;;;;;;16.15;14.40;;;;;;;15.20;89.95;100889.09;7393664;19;20010;-67
2023/06/16 06:11:42;;;;;;;14.35;12.85;;;;;;;15.18;90.16;100889.16;7401058;19;20467;-67
2023/06/16 06:14:11;;;;;;;14.27;12.77;;;;;;;15.14;89.94;100895.50;7398991;19;20019;-67
2023/06/16 06:16:39;;;;;;;13.65;12.25;;;;;;;15.13;89.94;100899.06;7401192;19;20010;-67
2023/06/16 06:19:08;;;;;;;13.35;11.95;;;;;;;15.11;90.37;100892.97;7400288;19;20015;-67
2023/06/16 06:21:38;;;;;;;13.40;12.00;;;;;;;15.13;90.15;100893.78;7400479;19;20018;-67
2023/06/16 06:24:10;;;;;;;15.90;12.10;;;;;;;15.15;90.57;100895.44;7398376;19;20074;-67
2023/06/16 06:26:39;;;;;;;14.80;12.40;;;;;;;15.20;90.27;100892.59;7399846;19;20553;-67
2023/06/16 06:29:08;;;;;;;13.45;11.43;;;;;;;15.24;90.10;100899.50;7400072;19;20022;-66
2023/06/16 06:31:36;;;;;;;14.85;12.63;;;;;;;15.25;89.64;100901.22;7400258;19;20345;-67
2023/06/16 06:34:05;;;;;;;12.73;10.93;;;;;;;15.30;89.33;100901.03;7398322;19;20031;-67
2023/06/16 06:36:37;;;;;;;12.48;10.50;;;;;;;15.36;88.96;100900.78;7397834;19;20043;-67
2023/06/16 06:39:05;;;;;;;11.70;10.20;;;;;;;15.43;88.47;100904.03;7400532;19;20026;-69
2023/06/16 06:41:37;;;;;;;11.68;9.38;;;;;;;15.50;88.42;100904.69;7399521;19;20021;-67
2023/06/16 06:44:05;;;;;;;11.43;10.25;;;;;;;15.56;88.25;100907.94;7398226;19;20019;-67
2023/06/16 06:46:34;;;;;;;11.55;9.88;;;;;;;15.62;87.58;100912.13;7399767;19;20035;-66
2023/06/16 06:49:02;;;;;;;10.52;9.40;;;;;;;15.64;87.20;100911.16;7397534;19;20082;-67
2023/06/16 06:51:31;;;;;;;10.60;9.18;;;;;;;15.66;86.96;100913.72;7401045;19;20040;-67
2023/06/16 06:53:59;;;;;;;13.68;10.20;;;;;;;15.64;86.63;100916.44;7397000;19;20022;-67
2023/06/16 06:56:28;;;;;;;11.70;10.30;;;;;;;15.63;86.75;100912.06;7397179;19;20014;-67
2023/06/16 06:58:59;;;;;;;12.15;10.80;;;;;;;15.60;86.91;100916.63;7398963;19;20387;-66
2023/06/16 07:01:28;;;;;;;12.45;10.75;;;;;;;15.54;87.51;100920.34;7398999;19;20019;-67
2023/06/16 07:03:56;;;;;;;11.88;10.68;;;;;;;15.50;87.84;100923.19;7397142;19;20035;-68
2023/06/16 07:06:25;;;;;;;9.95;8.95;;;;;;;15.45;88.31;100929.50;7399122;19;20046;-67
2023/06/16 07:08:53;;;;;;;12.60;8.00;;;;;;;15.31;88.99;100929.19;7398772;19;20377;-67
2023/06/16 07:11:22;;;;;;;9.70;8.70;;;;;;;15.10;89.52;100933.50;7396511;19;20018;-67
2023/06/16 07:13:50;;;;;;;9.85;8.85;;;;;;;14.94;90.71;100930.59;7397493;19;20344;-68
2023/06/16 07:16:21;;;;;;;10.35;9.25;;;;;;;14.86;91.35;100932.66;7399154;19;20018;-68
2023/06/16 07:18:51;;;;;;;10.68;9.57;;;;;;;14.77;92.19;100934.72;7399292;19;20025;-68
2023/06/16 07:21:19;;;;;;;9.20;8.20;;;;;;;14.68;93.44;100932.38;7398453;19;20070;-68
2023/06/16 07:23:48;;;;;;;8.65;7.57;;;;;;;14.60;93.11;100934.44;7397105;19;20023;-68
2023/06/16 07:26:16;;;;;;;8.18;7.38;;;;;;;14.54;93.75;100935.50;7398142;19;20022;-67
2023/06/16 07:28:45;;;;;;;6.88;6.25;;;;;;;14.49;94.51;100935.66;7396686;19;20373;-68
2023/06/16 07:31:13;;;;;;;6.03;5.43;;;;;;;14.45;94.72;100938.47;7398503;19;20024;-67
2023/06/16 07:33:44;;;;;;;8.00;6.63;;;;;;;14.42;95.00;100938.56;7395727;19;20014;-67
2023/06/16 07:36:13;;;;;;;7.97;7.22;;;;;;;14.40;95.29;100935.97;7398753;19;20015;-68
2023/06/16 07:38:42;;;;;;;7.70;7.00;;;;;;;14.37;95.27;100936.09;7397986;19;20034;-67
2023/06/16 07:41:10;;;;;;;7.95;6.80;;;;;;;14.36;95.40;100937.00;7397532;19;20015;-67
2023/06/16 07:43:39;;;;;;;8.30;7.50;;;;;;;14.34;95.36;100934.41;7396392;19;20447;-67
2023/06/16 07:46:07;;;;;;;8.38;7.57;;;;;;;14.36;95.68;100938.78;7394606;19;20363;-67
2023/06/16 07:48:35;;;;;;;8.45;7.65;;;;;;;14.37;95.45;100936.09;7395075;19;20014;-67
2023/06/16 07:51:07;;;;;;;8.68;7.53;;;;;;;14.41;95.89;100932.41;7396892;19;20035;-67
2023/06/16 07:53:35;;;;;;;8.07;7.28;;;;;;;14.43;95.83;100942.91;7395088;19;20018;-67
2023/06/16 07:56:05;;;;;;;8.57;7.78;;;;;;;14.45;95.95;100941.09;7394924;19;20026;-67
2023/06/16 07:58:35;;;;;;;8.55;7.75;;;;;;;14.50;95.98;100941.81;7396161;19;20407;-67
2023/06/16 08:01:04;;;;;;;9.77;8.38;;;;;;;14.55;96.82;100939.84;7396028;19;20119;-67
2023/06/16 08:03:33;;;;;;;9.18;7.25;;;;;;;14.56;95.84;100940.72;7393952;19;20355;-67
2023/06/16 08:06:01;;;;;;;9.23;7.88;;;;;;;14.54;96.71;100938.13;7396110;19;20382;-67
2023/06/16 08:08:33;;;;;;;9.27;7.75;;;;;;;14.55;96.92;100939.84;7395808;19;20011;-68
2023/06/16 08:11:02;;;;;;;8.02;7.28;;;;;;;14.55;96.85;100939.00;7394174;19;20481;-67
2023/06/16 08:13:30;;;;;;;8.55;7.55;;;;;;;14.55;97.08;100944.28;7395486;19;20021;-67
2023/06/16 08:15:59;;;;;;;8.05;7.22;;;;;;;14.50;96.74;100940.00;7395889;19;20527;-67
2023/06/16 08:18:27;;;;;;;7.68;6.90;;;;;;;14.43;97.89;100943.81;7394116;19;20485;-68
2023/06/16 08:20:56;;;;;;;9.80;8.52;;;;;;;14.34;97.66;100941.47;7394190;19;20018;-67
2023/06/16 08:23:24;;;;;;;10.13;9.23;;;;;;;14.30;98.63;100947.75;7393990;19;20034;-68
2023/06/16 08:25:56;;;;;;;10.70;8.68;;;;;;;14.26;98.88;100936.44;7394148;19;20035;-68
2023/06/16 08:28:24;;;;;;;10.52;9.48;;;;;;;14.20;99.93;100941.09;7395156;19;20518;-68
2023/06/16 08:30:53;;;;;;;11.98;10.88;;;;;;;14.15;99.00;100946.50;7394703;19;20027;-68
2023/06/16 08:33:22;;;;;;;12.48;10.45;;;;;;;14.15;99.35;100938.59;7393428;19;20039;-68
2023/06/16 08:35:51;;;;;;;12.30;11.02;;;;;;;14.17;99.62;100939.41;7394916;19;20018;-67
2023/06/16 08:38:19;;;;;;;13.20;11.40;;;;;;;14.21;99.91;100942.81;7395270;19;20018;-68
2023/06/16 08:40:49;;;;;;;13.32;12.02;;;;;;;14.25;99.99;100941.78;7395360;19;20019;-67
2023/06/16 08:43:21;;;;;;;14.15;12.63;;;;;;;14.31;99.70;100937.16;7394711;19;20018;-67
2023/06/16 08:45:52;;;;;;;13.40;12.07;;;;;;;14.38;100.00;100943.09;7393081;19;20078;-67
2023/06/16 08:48:21;;;;;;;13.30;11.77;;;;;;;14.44;100.00;100937.59;7393105;19;20007;-67
2023/06/16 08:50:49;;;;;;;14.05;12.32;;;;;;;14.44;100.00;100936.72;7393100;19;20410;-68
2023/06/16 08:53:22;;;;;;;12.82;11.55;;;;;;;14.42;100.00;100941.19;7394030;19;20442;-68
2023/06/16 08:55:53;;;;;;;13.38;12.05;;;;;;;14.42;100.00;100939.44;7394513;19;20014;-67
2023/06/16 08:58:24;;;;;;;14.20;12.73;;;;;;;14.44;100.00;100937.59;7393297;19;20022;-67
2023/06/16 09:00:53;;;;;;;13.45;12.10;;;;;;;14.49;100.00;100933.03;7393284;19;20014;-69
2023/06/16 09:03:22;;;;;;;12.93;11.63;;;;;;;14.52;100.00;100934.69;7393792;19;20023;-66
2023/06/16 09:05:51;;;;;;;14.77;13.02;;;;;;;14.54;100.00;100938.13;7392887;19;20029;-67
2023/06/16 09:08:19;;;;;;;13.43;12.02;;;;;;;14.58;100.00;100937.09;7394474;19;20019;-67
2023/06/16 09:10:54;;;;;;;13.80;12.30;;;;;;;14.62;100.00;100937.84;7393997;19;20379;-67
2023/06/16 09:13:26;;;;;;;13.85;12.50;;;;;;;14.69;100.00;100939.41;7392358;19;20502;-67
2023/06/16 09:15:56;;;;;;;15.48;12.55;;;;;;;14.72;100.00;100946.34;7393975;19;20017;-67
2023/06/16 09:18:25;;;;;;;13.75;12.35;;;;;;;14.72;99.94;100944.59;7394856;19;20015;-66
2023/06/16 09:20:53;;;;;;;13.30;11.80;;;;;;;14.73;99.60;100940.16;7392556;19;20078;-66
2023/06/16 09:23:30;;;;;;;13.20;11.80;;;;;;;14.76;99.52;100940.91;7393726;19;20026;-66
2023/06/16 09:25:58;;;;;;;13.55;11.77;;;;;;;14.83;99.38;100938.91;7393169;19;20047;-66
2023/06/16 09:28:46;;;;;;;12.90;11.70;;;;;;;14.94;99.79;100934.09;7392203;19;20014;-66
2023/06/16 09:31:15;;;;;;;12.75;11.43;;;;;;;15.05;98.81;100932.81;7392930;19;20425;-66
2023/06/16 09:33:45;;;;;;;12.77;11.35;;;;;;;15.12;98.33;100934.31;7391786;19;20022;-66
2023/06/16 09:36:13;;;;;;;12.18;10.32;;;;;;;15.18;97.70;100933.22;7393775;19;20018;-67
2023/06/16 09:38:43;;;;;;;13.25;10.32;;;;;;;15.21;97.36;100938.41;7393998;19;20022;-66
2023/06/16 09:41:15;;;;;;;13.73;9.43;;;;;;;15.24;97.30;100938.25;7393728;19;20022;-66
2023/06/16 09:43:46;;;;;;;11.10;9.88;;;;;;;15.25;97.78;100943.53;7395827;19;20366;-67
2023/06/16 09:46:16;;;;;;;10.75;9.13;;;;;;;15.28;97.46;100947.81;7398574;19;20022;-66
2023/06/16 09:48:53;;;;;;;11.15;9.95;;;;;;;15.33;97.31;100937.94;7397793;19;20023;-66
2023/06/16 09:51:24;;;;;;;12.75;10.40;;;;;;;15.36;97.30;100951.03;7400637;19;20109;-67
2023/06/16 09:53:53;;;;;;;12.25;9.80;;;;;;;15.37;97.02;100947.47;7398519;19;20427;-66
2023/06/16 09:56:22;;;;;;;10.10;9.10;;;;;;;15.37;96.84;100947.47;7398531;19;20019;-67
2023/06/16 09:58:53;;;;;;;12.73;9.52;;;;;;;15.32;96.58;100942.34;7400951;19;20077;-66
2023/06/16 10:01:24;;;;;;;9.40;8.50;;;;;;;15.29;96.77;100939.84;7397302;19;20457;-66
2023/06/16 10:03:55;;;;;;;11.05;8.80;;;;;;;15.28;96.59;100948.69;7397423;19;20014;-67
2023/06/16 10:06:28;;;;;;;9.98;8.95;;;;;;;15.24;96.15;100954.13;7397449;19;20024;-67
2023/06/16 10:08:58;;;;;;;11.13;8.80;;;;;;;15.20;96.66;100956.03;7400192;19;20082;-66
2023/06/16 10:11:27;;;;;;;14.50;10.10;;;;;;;15.15;97.00;100953.56;7399760;19;20019;-67
2023/06/16 10:14:02;;;;;;;11.48;10.02;;;;;;;15.12;97.12;100944.88;7398095;19;20484;-66
2023/06/16 10:16:33;;;;;;;12.68;10.30;;;;;;;15.08;97.41;100949.44;7400210;19;20078;-67
2023/06/16 10:19:04;;;;;;;15.30;10.75;;;;;;;15.04;97.59;100947.81;7400397;19;20010;-67
2023/06/16 10:21:33;;;;;;;13.40;10.48;;;;;;;15.02;97.96;100947.00;7400595;19;20019;-66
2023/06/16 10:24:03;;;;;;;11.55;9.90;;;;;;;15.01;98.52;100944.44;7397036;19;20485;-66
2023/06/16 10:26:32;;;;;;;14.20;11.57;;;;;;;14.96;98.77;100945.47;7396837;19;20014;-66
2023/06/16 10:29:04;;;;;;;16.80;11.32;;;;;;;14.93;99.46;100960.56;7396414;19;20483;-67
2023/06/16 10:31:33;;;;;;;13.75;10.77;;;;;;;14.90;99.71;100956.25;7399866;19;20424;-66
2023/06/16 10:34:02;;;;;;;12.20;10.93;;;;;;;14.89;99.88;100953.69;7397797;19;20022;-67
2023/06/16 10:36:33;;;;;;;12.10;10.00;;;;;;;14.88;100.00;100951.94;7399160;19;20026;-68
2023/06/16 10:39:03;;;;;;;12.75;10.45;;;;;;;14.83;100.00;100955.59;7396723;19;20015;-67
2023/06/16 10:41:32;;;;;;;14.02;9.82;;;;;;;14.81;100.00;100952.16;7399789;19;20041;-68
2023/06/16 10:44:27;;;;;;;10.32;9.30;;;;;;;14.79;100.00;100953.16;7396677;19;20495;-67
2023/06/16 10:47:38;;;;;;;10.45;9.48;;;;;;;14.80;100.00;100941.66;7399466;19;20528;-67
2023/06/16 10:50:07;;;;;;;10.07;9.00;;;;;;;14.86;100.00;100951.13;7397716;19;20046;-66
2023/06/16 10:52:54;;;;;;;13.48;9.40;;;;;;;14.92;100.00;100950.91;7398988;19;20019;-67
2023/06/16 10:55:40;;;;;;;13.32;9.15;;;;;;;15.03;100.00;100951.38;7398143;19;20090;-69
2023/06/16 10:58:26;;;;;;;11.90;10.02;;;;;;;15.09;100.00;100951.16;7400059;19;20006;-66
2023/06/16 11:01:28;;;;;;;10.60;9.20;;;;;;;15.17;100.00;100956.16;7399059;19;20388;-67
2023/06/16 11:04:03;;;;;;;13.13;9.05;;;;;;;15.18;98.83;100955.22;7398246;19;20018;-68
2023/06/16 11:07:02;;;;;;;10.63;8.50;;;;;;;15.18;97.62;100952.59;7396540;19;20375;-67
2023/06/16 11:09:31;;;;;;;9.48;8.52;;;;;;;15.22;98.45;100951.53;7399476;19;20022;-65
2023/06/16 11:12:00;;;;;;;10.07;8.45;;;;;;;15.29;98.39;100946.88;7396465;19;20026;-68
2023/06/16 11:14:30;;;;;;;12.38;8.45;;;;;;;15.36;98.27;100951.03;7395922;19;20043;-68
2023/06/16 11:17:02;;;;;;;9.27;7.57;;;;;;;15.40;97.39;100942.03;7396029;19;20365;-68
2023/06/16 11:19:30;;;;;;;10.77;8.38;;;;;;;15.39;96.90;100950.03;7397789;19;20014;-69
2023/06/16 11:22:02;;;;;;;11.48;9.38;;;;;;;15.41;97.05;100945.56;7395494;19;20018;-69
2023/06/16 11:24:34;;;;;;;10.05;9.02;;;;;;;15.43;97.24;100943.72;7394945;19;20025;-68
2023/06/16 11:27:02;;;;;;;10.18;9.10;;;;;;;15.50;97.22;100947.00;7396306;19;20015;-67
2023/06/16 11:29:31;;;;;;;10.10;8.45;;;;;;;15.58;97.03;100944.88;7396874;19;20382;-66